Home > Products > Valid Products > MTR

000
SAGM31 PGUM 211955
MTRGUM
METAR PGUM 211954Z 36003KT 10SM CLR 26/24 A2980 RMK AO2 SLP082
T02610244





000
SAGM31 PGUM 211955
MTRGUM
METAR PGUM 211954Z 36003KT 10SM CLR 26/24 A2980 RMK AO2 SLP082
T02610244




000
SAGM31 PGUM 211855
MTRGUM
METAR PGUM 211854Z 03003KT 10SM FEW010 SCT014 27/26 A2979 RMK AO2
SLP079 T02670256




000
SAGM31 PGUM 211855
MTRGUM
METAR PGUM 211854Z 03003KT 10SM FEW010 SCT014 27/26 A2979 RMK AO2
SLP079 T02670256





000
SAGM31 PGUM 211846
MTRGUM
SPECI PGUM 211845Z 05003KT 10SM FEW012 SCT019 SCT025 27/26 A2979 RMK
AO2





000
SAGM31 PGUM 211836
MTRGUM
SPECI PGUM 211835Z 00000KT 10SM SCT013 BKN018 BKN025 27/26 A2978 RMK
AO2




000
SAGM31 PGUM 211836
MTRGUM
SPECI PGUM 211835Z 00000KT 10SM SCT013 BKN018 BKN025 27/26 A2978 RMK
AO2





000
SAGM31 PGUM 211755
MTRGUM
METAR PGUM 211754Z 00000KT 10SM FEW022 27/26 A2977 RMK AO2 SLP074
T02670256 10272 20256 56012




000
SAGM31 PGUM 211755
MTRGUM
METAR PGUM 211754Z 00000KT 10SM FEW022 27/26 A2977 RMK AO2 SLP074
T02670256 10272 20256 56012





000
SAGM31 PGUM 211738
MTRGUM
SPECI PGUM 211737Z 00000KT 10SM FEW008 26/25 A2977 RMK AO2





000
SAGM31 PGUM 211738
MTRGUM
SPECI PGUM 211737Z 00000KT 10SM FEW008 26/25 A2977 RMK AO2




000
SAGM31 PGUM 211655
MTRGUM
METAR PGUM 211654Z 00000KT 10SM CLR 26/25 A2978 RMK AO2 SLP076
T02610250




000
SAGM31 PGUM 211655
MTRGUM
METAR PGUM 211654Z 00000KT 10SM CLR 26/25 A2978 RMK AO2 SLP076
T02610250





000
SAGM31 PGUM 211555
MTRGUM
METAR PGUM 211554Z 00000KT 10SM CLR 26/25 A2979 RMK AO2 SLP080
T02610250




000
SAGM31 PGUM 211555
MTRGUM
METAR PGUM 211554Z 00000KT 10SM CLR 26/25 A2979 RMK AO2 SLP080
T02610250





000
SAGM31 PGUM 211455
MTRGUM
METAR PGUM 211454Z 00000KT 10SM SCT015 26/25 A2981 RMK AO2 SLP086
T02610250 58008





000
SAGM31 PGUM 211455
MTRGUM
METAR PGUM 211454Z 00000KT 10SM SCT015 26/25 A2981 RMK AO2 SLP086
T02610250 58008




000
SAGM31 PGUM 211355
MTRGUM
METAR PGUM 211354Z 12003KT 10SM FEW019 27/25 A2982 RMK AO2 SLP091
T02670250 403220256





000
SAGM31 PGUM 211355
MTRGUM
METAR PGUM 211354Z 12003KT 10SM FEW019 27/25 A2982 RMK AO2 SLP091
T02670250 403220256




000
SAGM31 PGUM 211255
MTRGUM
METAR PGUM 211254Z 00000KT 10SM FEW019 27/25 A2983 RMK AO2 SLP094
T02670250




000
SAGM31 PGUM 211255
MTRGUM
METAR PGUM 211254Z 00000KT 10SM FEW019 27/25 A2983 RMK AO2 SLP094
T02670250





000
SAGM31 PGUM 211155
MTRGUM
METAR PGUM 211154Z 00000KT 10SM FEW019 27/25 A2983 RMK AO2 SLP095
60000 70008 T02670250 10300 20261 50005




000
SAGM31 PGUM 211055
MTRGUM
METAR PGUM 211054Z 10003KT 10SM FEW019 26/24 A2985 RMK AO2 RAB38E47
SLP098 P0000 T02610244





000
SAGM31 PGUM 211055
MTRGUM
METAR PGUM 211054Z 10003KT 10SM FEW019 26/24 A2985 RMK AO2 RAB38E47
SLP098 P0000 T02610244




000
SAGM31 PGUM 210955
MTRGUM
METAR PGUM 210954Z 17003KT 10SM FEW019 BKN049 27/24 A2984 RMK AO2
SLP095 T02670239





000
SAGM31 PGUM 210955
MTRGUM
METAR PGUM 210954Z 17003KT 10SM FEW019 BKN049 27/24 A2984 RMK AO2
SLP095 T02670239




000
SAGM31 PGUM 210855
MTRGUM
METAR PGUM 210854Z 00000KT 10SM SCT034 26/24 A2982 RMK AO2 TSE16
SLP090 CB DSNT SE MOV SW T02610239 51014





000
SAGM31 PGUM 210855
MTRGUM
METAR PGUM 210854Z 00000KT 10SM SCT034 26/24 A2982 RMK AO2 TSE16
SLP090 CB DSNT SE MOV SW T02610239 51014




000
SAGM31 PGUM 210852
MTRGUM
SPECI PGUM 210851Z 00000KT 10SM SCT034 26/24 A2982 RMK AO2 TSE16 CB
DSNT SE MOV SW





000
SAGM31 PGUM 210852
MTRGUM
SPECI PGUM 210851Z 00000KT 10SM SCT034 26/24 A2982 RMK AO2 TSE16 CB
DSNT SE MOV SW




000
SAGM31 PGUM 210823
MTRGUM
SPECI PGUM 210822Z 22005KT 10SM BKN029CB BKN038 OVC100 26/24 A2981
RMK AO2 TSE16 TS SW DSIPTD CB DSNT SW MOV SW




000
SAGM31 PGUM 210823
MTRGUM
SPECI PGUM 210822Z 22005KT 10SM BKN029CB BKN038 OVC100 26/24 A2981
RMK AO2 TSE16 TS SW DSIPTD CB DSNT SW MOV SW





000
SAGM31 PGUM 210802
MTRGUM
SPECI PGUM 210801Z 22004KT 10SM TS BKN029CB BKN038 OVC100 27/25
A2981 RMK AO2 TS SW MOV S CB S-SW MOV S




000
SAGM31 PGUM 210802
MTRGUM
SPECI PGUM 210801Z 22004KT 10SM TS BKN029CB BKN038 OVC100 27/25
A2981 RMK AO2 TS SW MOV S CB S-SW MOV S





000
SAGM31 PGUM 210755
MTRGUM
METAR PGUM 210754Z VRB04KT 10SM TS BKN014CB BKN022 28/26 A2981 RMK
AO2 TSB21 SLP085 OCNL LTGICCC W TS W MOVING S CB SW-W MOV S
T02830261





000
SAGM31 PGUM 210728
MTRGUM
SPECI PGUM 210727Z 04008KT 10SM TS BKN014CB BKN022 29/26 A2980 RMK
AO2 TSB21 TS W MOVING S CB SW-W MOV S





000
SAGM31 PGUM 210728
MTRGUM
SPECI PGUM 210727Z 04008KT 10SM TS BKN014CB BKN022 29/26 A2980 RMK
AO2 TSB21 TS W MOVING S CB SW-W MOV S




000
SAGM31 PGUM 210711
MTRGUM
SPECI PGUM 210710Z 01006KT 10SM BKN014 OVC024 29/26 A2978 RMK AO2 CB
DSNT SW-W MOV S




000
SAGM31 PGUM 210711
MTRGUM
SPECI PGUM 210710Z 01006KT 10SM BKN014 OVC024 29/26 A2978 RMK AO2 CB
DSNT SW-W MOV S





000
SAGM31 PGUM 210655
MTRGUM
METAR PGUM 210654Z 30006KT 10SM FEW016 BKN022 BKN032 29/26 A2978 RMK
AO2 SLP076 CB DSNT S-SW MOV SW T02890261




000
SAGM31 PGUM 210655
MTRGUM
METAR PGUM 210654Z 30006KT 10SM FEW016 BKN022 BKN032 29/26 A2978 RMK
AO2 SLP076 CB DSNT S-SW MOV SW T02890261





000
SAGM31 PGUM 210627
MTRGUM
SPECI PGUM 210626Z 34006KT 10SM FEW022 SCT027 BKN075 29/26 A2978 RMK
AO2 CB DSNT S-SW MOV SW





000
SAGM31 PGUM 210619
MTRGUM
SPECI PGUM 210618Z 34007KT 10SM SCT022 BKN029 BKN034 29/26 A2977 RMK
AO2




000
SAGM31 PGUM 210619
MTRGUM
SPECI PGUM 210618Z 34007KT 10SM SCT022 BKN029 BKN034 29/26 A2977 RMK
AO2





000
SAGM31 PGUM 210555
MTRGUM
METAR PGUM 210554Z 33008KT 10SM FEW020 SCT035 BKN044 28/26 A2977 RMK
AO2 RAB25E44 SLP074 CB DSNT NW-NE AND S MOV SW P0001 60016 T02830261
10317 20272 55009




000
SAGM31 PGUM 210555
MTRGUM
METAR PGUM 210554Z 33008KT 10SM FEW020 SCT035 BKN044 28/26 A2977 RMK
AO2 RAB25E44 SLP074 CB DSNT NW-NE AND S MOV SW P0001 60016 T02830261
10317 20272 55009





000
SAGM31 PGUM 210455
MTRGUM
METAR PGUM 210454Z 33008KT 10SM FEW018 SCT070 31/24 A2977 RMK AO2
SLP071 CB DSNT N AND S MOV SW T03110244





000
SAGM31 PGUM 210455
MTRGUM
METAR PGUM 210454Z 33008KT 10SM FEW018 SCT070 31/24 A2977 RMK AO2
SLP071 CB DSNT N AND S MOV SW T03110244




000
SAGM31 PGUM 210355
MTRGUM
METAR PGUM 210354Z 34009KT 10SM FEW020 SCT032 31/25 A2978 RMK AO2
SLP076 T03110250





000
SAGM31 PGUM 210355
MTRGUM
METAR PGUM 210354Z 34009KT 10SM FEW020 SCT032 31/25 A2978 RMK AO2
SLP076 T03110250




000
SAGM31 PGUM 210255
MTRGUM
METAR PGUM 210254Z 35009KT 10SM SCT022 BKN032 BKN038 31/27 A2980 RMK
AO2 TSE07RAE07 SLP083 CB DSNT SW AND NW MOV SW P0000 60012 T03110267
58021





000
SAGM31 PGUM 210255
MTRGUM
METAR PGUM 210254Z 35009KT 10SM SCT022 BKN032 BKN038 31/27 A2980 RMK
AO2 TSE07RAE07 SLP083 CB DSNT SW AND NW MOV SW P0000 60012 T03110267
58021




000
SAGM31 PGUM 210227
MTRGUM
SPECI PGUM 210226Z 31005KT 10SM FEW013 SCT022 BKN032 31/27 A2982 RMK
AO2 TSE07RAE07 CB DSNT SW MOV SW P0000




000
SAGM31 PGUM 210227
MTRGUM
SPECI PGUM 210226Z 31005KT 10SM FEW013 SCT022 BKN032 31/27 A2982 RMK
AO2 TSE07RAE07 CB DSNT SW MOV SW P0000





000
SAGM31 PGUM 210208
MTRGUM
SPECI PGUM 210207Z 22005KT 10SM FEW008 BKN016CB BKN030 28/26 A2983
RMK AO2 TSE07RAE07 CB VC S MOV SW P0000




000
SAGM31 PGUM 210208
MTRGUM
SPECI PGUM 210207Z 22005KT 10SM FEW008 BKN016CB BKN030 28/26 A2983
RMK AO2 TSE07RAE07 CB VC S MOV SW P0000





000
SAGM31 PGUM 210155
MTRGUM
METAR PGUM 210154Z 19007KT 7SM -TSRA SCT016CB BKN020 BKN055 28/27
A2984 RMK AO2 TSB21RAE14B38 SLP095 TS VC SW MOV SW CB DSNT SW AND NW
MOV SW P0007 T02780267





000
SAGM31 PGUM 210122
MTRGUM
SPECI PGUM 210121Z 36004KT 10SM TS FEW018CB BKN035 BKN055 29/26
A2986 RMK AO2 TSB21RAE14 TS VC SW MOV SW P0006





000
SAGM31 PGUM 210122
MTRGUM
SPECI PGUM 210121Z 36004KT 10SM TS FEW018CB BKN035 BKN055 29/26
A2986 RMK AO2 TSB21RAE14 TS VC SW MOV SW P0006




000
SAGM31 PGUM 210114
MTRGUM
SPECI PGUM 210113Z 04004KT 10SM -RA FEW018CB BKN035 BKN055 28/26
A2986 RMK AO2 CB VC SW MOV SW P0006





000
SAGM31 PGUM 210114
MTRGUM
SPECI PGUM 210113Z 04004KT 10SM -RA FEW018CB BKN035 BKN055 28/26
A2986 RMK AO2 CB VC SW MOV SW P0006




000
SAGM31 PGUM 210055
MTRGUM
METAR PGUM 210054Z 07013KT 4SM RA SCT018CB BKN026 BKN033 29/25 A2987
RMK AO2 RAB52 SLP105 CB W AND SW MOV SW P0000 T02890250





000
SAGM31 PGUM 210055
MTRGUM
METAR PGUM 210054Z 07013KT 4SM RA SCT018CB BKN026 BKN033 29/25 A2987
RMK AO2 RAB52 SLP105 CB W AND SW MOV SW P0000 T02890250




000
SAGM31 PGUM 210018
MTRGUM
SPECI PGUM 210017Z 34006KT 10SM BKN026 BKN033 32/26 A2986 RMK AO2




000
SAGM31 PGUM 210018
MTRGUM
SPECI PGUM 210017Z 34006KT 10SM BKN026 BKN033 32/26 A2986 RMK AO2





000
SAGM31 PGUM 202355
MTRGUM
METAR PGUM 202354Z 35005KT 10SM SCT022 SCT030 BKN037 32/26 A2986 RMK
AO2 SLP103 T03170261 10322 20256 51008




000
SAGM31 PGUM 202355
MTRGUM
METAR PGUM 202354Z 35005KT 10SM SCT022 SCT030 BKN037 32/26 A2986 RMK
AO2 SLP103 T03170261 10322 20256 51008





000
SAGM31 PGUM 202341
MTRGUM
SPECI PGUM 202340Z 01005KT 10SM FEW014 SCT025 SCT034 31/25 A2987 RMK
AO2




000
SAGM31 PGUM 202334
MTRGUM
SPECI PGUM 202333Z 02005KT 10SM FEW014 BKN025 BKN032 31/26 A2987 RMK
AO2




000
SAGM31 PGUM 202334
MTRGUM
SPECI PGUM 202333Z 02005KT 10SM FEW014 BKN025 BKN032 31/26 A2987 RMK
AO2





000
SAGM31 PGUM 202305
MTRGUM
SPECI PGUM 202304Z 35003KT 10SM BKN018 BKN027 30/26 A2987 RMK AO2




000
SAGM31 PGUM 202305
MTRGUM
SPECI PGUM 202304Z 35003KT 10SM BKN018 BKN027 30/26 A2987 RMK AO2





000
SAGM31 PGUM 202255
MTRGUM
METAR PGUM 202254Z VRB03KT 10SM SCT017 SCT024 31/26 A2986 RMK AO2
SLP103 T03060261




000
SAGM31 PGUM 202155
MTRGUM
METAR PGUM 202154Z 04006KT 10SM CLR 29/26 A2985 RMK AO2 SLP101
T02940256





000
SAGM31 PGUM 202155
MTRGUM
METAR PGUM 202154Z 04006KT 10SM CLR 29/26 A2985 RMK AO2 SLP101
T02940256




000
SAGM31 PGUM 202055
MTRGUM
METAR PGUM 202054Z 06004KT 10SM CLR 28/25 A2984 RMK AO2 SLP096
T02780250 53013





000
SAGM31 PGUM 202055
MTRGUM
METAR PGUM 202054Z 06004KT 10SM CLR 28/25 A2984 RMK AO2 SLP096
T02780250 53013




000
SAGM31 PGUM 201955
MTRGUM
METAR PGUM 201954Z 05005KT 10SM FEW044 27/25 A2982 RMK AO2 SLP089
T02670250





000
SAGM31 PGUM 201955
MTRGUM
METAR PGUM 201954Z 05005KT 10SM FEW044 27/25 A2982 RMK AO2 SLP089
T02670250




000
SAGM31 PGUM 201855
MTRGUM
METAR PGUM 201854Z 04004KT 10SM BKN060 BKN075 27/25 A2981 RMK AO2
SLP085 T02670250




000
SAGM31 PGUM 201855
MTRGUM
METAR PGUM 201854Z 04004KT 10SM BKN060 BKN075 27/25 A2981 RMK AO2
SLP085 T02670250





000
SAGM31 PGUM 201755
MTRGUM
METAR PGUM 201754Z 00000KT 10SM CLR 27/24 A2980 RMK AO2 SLP083
T02670244 10283 20267 58008





000
SAGM31 PGUM 201655
MTRGUM
METAR PGUM 201654Z 09003KT 10SM CLR 27/25 A2981 RMK AO2 SLP086
T02720250




000
SAGM31 PGUM 201655
MTRGUM
METAR PGUM 201654Z 09003KT 10SM CLR 27/25 A2981 RMK AO2 SLP086
T02720250





000
SAGM31 PGUM 201555
MTRGUM
METAR PGUM 201554Z 08003KT 10SM CLR 28/25 A2982 RMK AO2 SLP089
T02780250




000
SAGM31 PGUM 201555
MTRGUM
METAR PGUM 201554Z 08003KT 10SM CLR 28/25 A2982 RMK AO2 SLP089
T02780250





000
SAGM31 PGUM 201455
MTRGUM
METAR PGUM 201454Z 09004KT 10SM FEW020 27/25 A2982 RMK AO2 SLP090
T02720250 58010




000
SAGM31 PGUM 201455
MTRGUM
METAR PGUM 201454Z 09004KT 10SM FEW020 27/25 A2982 RMK AO2 SLP090
T02720250 58010





000
SAGM31 PGUM 201355
MTRGUM
METAR PGUM 201354Z 08004KT 10SM FEW020 28/25 A2984 RMK AO2 SLP097
T02780250 403220261




000
SAGM31 PGUM 201355
MTRGUM
METAR PGUM 201354Z 08004KT 10SM FEW020 28/25 A2984 RMK AO2 SLP097
T02780250 403220261





000
SAGM31 PGUM 201255
MTRGUM
METAR PGUM 201254Z 09005KT 10SM FEW020 28/25 A2985 RMK AO2 SLP099
T02780250




000
SAGM31 PGUM 201255
MTRGUM
METAR PGUM 201254Z 09005KT 10SM FEW020 28/25 A2985 RMK AO2 SLP099
T02780250





000
SAGM31 PGUM 201155
MTRGUM
METAR PGUM 201154Z 08006KT 10SM FEW020 28/25 A2985 RMK AO2 SLP101
60000 T02830250 10311 20278 51017





000
SAGM31 PGUM 201155
MTRGUM
METAR PGUM 201154Z 08006KT 10SM FEW020 28/25 A2985 RMK AO2 SLP101
60000 T02830250 10311 20278 51017




000
SAGM31 PGUM 201055
MTRGUM
METAR PGUM 201054Z 08006KT 10SM FEW021 28/25 A2985 RMK AO2 SLP098
T02830250





000
SAGM31 PGUM 201055
MTRGUM
METAR PGUM 201054Z 08006KT 10SM FEW021 28/25 A2985 RMK AO2 SLP098
T02830250




000
SAGM31 PGUM 200955
MTRGUM
METAR PGUM 200954Z 09005KT 10SM FEW020 28/25 A2983 RMK AO2 SLP091
T02780250




000
SAGM31 PGUM 200906
MTRGUM
METAR PGUM 200854Z COR 06006KT 10SM FEW018 SCT050 28/26 A2980 RMK
AO2 RAB0756E09 SLP084 P0000 60000 T02830256 53012




000
SAGM31 PGUM 200906
MTRGUM
METAR PGUM 200854Z COR 06006KT 10SM FEW018 SCT050 28/26 A2980 RMK
AO2 RAB0756E09 SLP084 P0000 60000 T02830256 53012





000
SAGM31 PGUM 200855
MTRGUM
METAR PGUM 200854Z 06006KT 10SM CLR 28/26 A2980 RMK AO2 RAB0756E09
SLP084 P0000 60000 T02830256 53012





000
SAGM31 PGUM 200855
MTRGUM
METAR PGUM 200854Z 06006KT 10SM CLR 28/26 A2980 RMK AO2 RAB0756E09
SLP084 P0000 60000 T02830256 53012




000
SAGM31 PGUM 200755
MTRGUM
METAR PGUM 200754Z 07007KT 10SM FEW018 SCT040 SCT080 29/25 A2978 RMK
AO2 SLP076 T02890250




000
SAGM31 PGUM 200755
MTRGUM
METAR PGUM 200754Z 07007KT 10SM FEW018 SCT040 SCT080 29/25 A2978 RMK
AO2 SLP076 T02890250





000
SAGM31 PGUM 200655
MTRGUM
METAR PGUM 200654Z 07006KT 10SM SCT016CB BKN041 BKN080 30/26 A2978
RMK AO2 RAB11E20 SLP075 CB VC W MOV W P0000 T03000256




000
SAGM31 PGUM 200655
MTRGUM
METAR PGUM 200654Z 07006KT 10SM SCT016CB BKN041 BKN080 30/26 A2978
RMK AO2 RAB11E20 SLP075 CB VC W MOV W P0000 T03000256





000
SAGM31 PGUM 200634
MTRGUM
SPECI PGUM 200633Z 08008KT 10SM SCT017 BKN043 BKN065 30/26 A2978 RMK
AO2 RAB11E20 CB DSNT SW MOV W P0000





000
SAGM31 PGUM 200614
MTRGUM
SPECI PGUM 200613Z 09008KT 10SM -RA BKN019 BKN026 BKN060 30/26 A2978
RMK AO2 RAB11 P0000




000
SAGM31 PGUM 200614
MTRGUM
SPECI PGUM 200613Z 09008KT 10SM -RA BKN019 BKN026 BKN060 30/26 A2978
RMK AO2 RAB11 P0000





000
SAGM31 PGUM 200555
MTRGUM
METAR PGUM 200554Z 06008KT 10SM FEW021 31/25 A2977 RMK AO2 SLP072
T03060250 10322 20294 58006





000
SAGM31 PGUM 200555
MTRGUM
METAR PGUM 200554Z 06008KT 10SM FEW021 31/25 A2977 RMK AO2 SLP072
T03060250 10322 20294 58006




000
SAGM31 PGUM 200539
MTRGUM
SPECI PGUM 200538Z 08008KT 10SM SCT019 31/24 A2977 RMK AO2




000
SAGM31 PGUM 200539
MTRGUM
SPECI PGUM 200538Z 08008KT 10SM SCT019 31/24 A2977 RMK AO2





000
SAGM31 PGUM 200508
MTRGUM
SPECI PGUM 200507Z 07008KT 10SM BKN021 31/25 A2977 RMK AO2





000
SAGM31 PGUM 200508
MTRGUM
SPECI PGUM 200507Z 07008KT 10SM BKN021 31/25 A2977 RMK AO2




000
SAGM31 PGUM 200455
MTRGUM
METAR PGUM 200454Z 08009KT 10SM FEW021 SCT028 31/25 A2977 RMK AO2
SLP073 T03060250





000
SAGM31 PGUM 200455
MTRGUM
METAR PGUM 200454Z 08009KT 10SM FEW021 SCT028 31/25 A2977 RMK AO2
SLP073 T03060250




000
SAGM31 PGUM 200355
MTRGUM
METAR PGUM 200354Z 09010KT 10SM SCT025 BKN032 31/24 A2979 RMK AO2
SLP078 T03110244




000
SAGM31 PGUM 200355
MTRGUM
METAR PGUM 200354Z 09010KT 10SM SCT025 BKN032 31/24 A2979 RMK AO2
SLP078 T03110244





000
SAGM31 PGUM 200353
MTRGUM
SPECI PGUM 200352Z 09009KT 10SM BKN025 BKN032 31/24 A2979 RMK AO2




000
SAGM31 PGUM 200353
MTRGUM
SPECI PGUM 200352Z 09009KT 10SM BKN025 BKN032 31/24 A2979 RMK AO2





000
SAGM31 PGUM 200324
MTRGUM
SPECI PGUM 200323Z 06007KT 10SM SCT024 BKN032 BKN040 31/24 A2980 RMK
AO2




000
SAGM31 PGUM 200324
MTRGUM
SPECI PGUM 200323Z 06007KT 10SM SCT024 BKN032 BKN040 31/24 A2980 RMK
AO2





000
SAGM31 PGUM 200312
MTRGUM
SPECI PGUM 200311Z 09007KT 10SM BKN024 BKN034 31/24 A2981 RMK AO2





000
SAGM31 PGUM 200255
MTRGUM
METAR PGUM 200254Z 05009KT 10SM SCT026 32/24 A2981 RMK AO2 SLP087
T03220244 58022




000
SAGM31 PGUM 200255
MTRGUM
METAR PGUM 200254Z 05009KT 10SM SCT026 32/24 A2981 RMK AO2 SLP087
T03220244 58022





000
SAGM31 PGUM 200155
MTRGUM
METAR PGUM 200154Z 09008KT 10SM FEW019 31/26 A2984 RMK AO2 SLP095
T03060256




000
SAGM31 PGUM 200055
MTRGUM
METAR PGUM 200054Z 07011KT 10SM FEW019 31/24 A2986 RMK AO2 SLP104
T03060244




000
SAGM31 PGUM 200055
MTRGUM
METAR PGUM 200054Z 07011KT 10SM FEW019 31/24 A2986 RMK AO2 SLP104
T03060244





000
SAGM31 PGUM 192355
MTRGUM
METAR PGUM 192354Z 08009KT 10SM FEW020 SCT026 SCT033 29/26 A2988 RMK
AO2 SLP109 T02940256 10300 20261 51012




000
SAGM31 PGUM 192355
MTRGUM
METAR PGUM 192354Z 08009KT 10SM FEW020 SCT026 SCT033 29/26 A2988 RMK
AO2 SLP109 T02940256 10300 20261 51012





000
SAGM31 PGUM 192345
MTRGUM
SPECI PGUM 192344Z 09008KT 10SM FEW018 SCT024 SCT033 30/25 A2987 RMK
AO2




000
SAGM31 PGUM 192345
MTRGUM
SPECI PGUM 192344Z 09008KT 10SM FEW018 SCT024 SCT033 30/25 A2987 RMK
AO2





000
SAGM31 PGUM 192337
MTRGUM
SPECI PGUM 192336Z 08008KT 10SM SCT018 BKN026 BKN033 29/26 A2987 RMK
AO2




000
SAGM31 PGUM 192337
MTRGUM
SPECI PGUM 192336Z 08008KT 10SM SCT018 BKN026 BKN033 29/26 A2987 RMK
AO2





000
SAGM31 PGUM 192255
MTRGUM
METAR PGUM 192254Z 07008KT 10SM CLR 29/25 A2987 RMK AO2 SLP106
T02940250




000
SAGM31 PGUM 192255
MTRGUM
METAR PGUM 192254Z 07008KT 10SM CLR 29/25 A2987 RMK AO2 SLP106
T02940250





000
SAGM31 PGUM 192155
MTRGUM
METAR PGUM 192154Z 06008KT 10SM FEW080 28/24 A2985 RMK AO2 SLP101
T02830244




000
SAGM31 PGUM 192155
MTRGUM
METAR PGUM 192154Z 06008KT 10SM FEW080 28/24 A2985 RMK AO2 SLP101
T02830244





000
SAGM31 PGUM 192055
MTRGUM
METAR PGUM 192054Z 07009KT 10SM CLR 27/24 A2984 RMK AO2 SLP097
T02720244 53011




000
SAGM31 PGUM 192055
MTRGUM
METAR PGUM 192054Z 07009KT 10SM CLR 27/24 A2984 RMK AO2 SLP097
T02720244 53011





000
SAGM31 PGUM 191955
MTRGUM
METAR PGUM 191954Z 04005KT 10SM FEW020 SCT060 BKN095 27/24 A2982 RMK
AO2 SLP091 T02670244




000
SAGM31 PGUM 191955
MTRGUM
METAR PGUM 191954Z 04005KT 10SM FEW020 SCT060 BKN095 27/24 A2982 RMK
AO2 SLP091 T02670244





000
SAGM31 PGUM 191855
MTRGUM
METAR PGUM 191854Z 00000KT 10SM FEW060 SCT080 BKN095 27/25 A2982 RMK
AO2 SLP089 T02670250




000
SAGM31 PGUM 191855
MTRGUM
METAR PGUM 191854Z 00000KT 10SM FEW060 SCT080 BKN095 27/25 A2982 RMK
AO2 SLP089 T02670250





000
SAGM31 PGUM 191755
MTRGUM
METAR PGUM 191754Z 06005KT 10SM CLR 27/24 A2981 RMK AO2 SLP086
T02670244 10272 20261 56010





000
SAGM31 PGUM 191755
MTRGUM
METAR PGUM 191754Z 06005KT 10SM CLR 27/24 A2981 RMK AO2 SLP086
T02670244 10272 20261 56010




000
SAGM31 PGUM 191655
MTRGUM
METAR PGUM 191654Z 05007KT 10SM CLR 27/24 A2981 RMK AO2 SLP086
T02670244




000
SAGM31 PGUM 191655
MTRGUM
METAR PGUM 191654Z 05007KT 10SM CLR 27/24 A2981 RMK AO2 SLP086
T02670244





000
SAGM31 PGUM 191555
MTRGUM
METAR PGUM 191554Z 03003KT 10SM CLR 26/24 A2983 RMK AO2 SLP091
T02610244





000
SAGM31 PGUM 191555
MTRGUM
METAR PGUM 191554Z 03003KT 10SM CLR 26/24 A2983 RMK AO2 SLP091
T02610244




000
SAGM31 PGUM 191455
MTRGUM
METAR PGUM 191454Z 34004KT 10SM CLR 26/24 A2984 RMK AO2 SLP096
T02610244 58018




000
SAGM31 PGUM 191455
MTRGUM
METAR PGUM 191454Z 34004KT 10SM CLR 26/24 A2984 RMK AO2 SLP096
T02610244 58018





000
SAGM31 PGUM 191355
MTRGUM
METAR PGUM 191354Z 06004KT 10SM FEW018 27/24 A2986 RMK AO2 SLP104
OCNL LTGICCC DSNT W T02670244 403170233




000
SAGM31 PGUM 191355
MTRGUM
METAR PGUM 191354Z 06004KT 10SM FEW018 27/24 A2986 RMK AO2 SLP104
OCNL LTGICCC DSNT W T02670244 403170233





000
SAGM31 PGUM 191255
MTRGUM
METAR PGUM 191254Z 05007KT 10SM FEW020 SCT080 27/24 A2988 RMK AO2
SLP110 OCNL LTGIC DSNT SW AND W T02720244




000
SAGM31 PGUM 191255
MTRGUM
METAR PGUM 191254Z 05007KT 10SM FEW020 SCT080 27/24 A2988 RMK AO2
SLP110 OCNL LTGIC DSNT SW AND W T02720244





000
SAGM31 PGUM 191155
MTRGUM
METAR PGUM 191154Z 05006KT 10SM FEW018 SCT080 27/24 A2989 RMK AO2
SLP114 70138 T02720244 10289 20272 53016





000
SAGM31 PGUM 191155
MTRGUM
METAR PGUM 191154Z 05006KT 10SM FEW018 SCT080 27/24 A2989 RMK AO2
SLP114 70138 T02720244 10289 20272 53016




000
SAGM31 PGUM 191055
MTRGUM
METAR PGUM 191054Z 05006KT 10SM FEW018 BKN070 28/25 A2988 RMK AO2
SLP109 T02780250





000
SAGM31 PGUM 191055
MTRGUM
METAR PGUM 191054Z 05006KT 10SM FEW018 BKN070 28/25 A2988 RMK AO2
SLP109 T02780250




000
SAGM31 PGUM 190955
MTRGUM
METAR PGUM 190954Z 06005KT 10SM FEW020 SCT060 28/25 A2986 RMK AO2
SLP103 T02780250




000
SAGM31 PGUM 190955
MTRGUM
METAR PGUM 190954Z 06005KT 10SM FEW020 SCT060 28/25 A2986 RMK AO2
SLP103 T02780250





000
SAGM31 PGUM 190855
MTRGUM
METAR PGUM 190854Z 05007KT 10SM FEW020 28/25 A2985 RMK AO2 SLP099
T02780250 53014





000
SAGM31 PGUM 190855
MTRGUM
METAR PGUM 190854Z 05007KT 10SM FEW020 28/25 A2985 RMK AO2 SLP099
T02780250 53014




000
SAGM31 PGUM 190755
MTRGUM
METAR PGUM 190754Z 03007KT 10SM FEW020 SCT100 28/25 A2983 RMK AO2
SLP092 T02830250




000
SAGM31 PGUM 190755
MTRGUM
METAR PGUM 190754Z 03007KT 10SM FEW020 SCT100 28/25 A2983 RMK AO2
SLP092 T02830250





000
SAGM31 PGUM 190655
MTRGUM
METAR PGUM 190654Z 02008KT 10SM FEW020 SCT100 29/25 A2981 RMK AO2
SLP087 T02890250





000
SAGM31 PGUM 190555
MTRGUM
METAR PGUM 190554Z 02008KT 10SM FEW025 29/25 A2980 RMK AO2 SLP084
60008 T02890250 10317 20283 58017




000
SAGM31 PGUM 190555
MTRGUM
METAR PGUM 190554Z 02008KT 10SM FEW025 29/25 A2980 RMK AO2 SLP084
60008 T02890250 10317 20283 58017





000
SAGM31 PGUM 190455
MTRGUM
METAR PGUM 190454Z 03010KT 10SM FEW055 29/26 A2983 RMK AO2
RAE02B35E44 SLP092 P0000 T02890256




000
SAGM31 PGUM 190455
MTRGUM
METAR PGUM 190454Z 03010KT 10SM FEW055 29/26 A2983 RMK AO2
RAE02B35E44 SLP092 P0000 T02890256





000
SAGM31 PGUM 190355
MTRGUM
METAR PGUM 190354Z 04010G25KT 7SM -RA FEW027 BKN034 BKN045 28/24
A2983 RMK AO2 RAB48 SLP094 P0004 T02830244




000
SAGM31 PGUM 190355
MTRGUM
METAR PGUM 190354Z 04010G25KT 7SM -RA FEW027 BKN034 BKN045 28/24
A2983 RMK AO2 RAB48 SLP094 P0004 T02830244





000
SAGM31 PGUM 190316
MTRGUM
SPECI PGUM 190315Z 02014G20KT 10SM SCT023 BKN036 BKN044 31/25 A2985
RMK AO2




000
SAGM31 PGUM 190316
MTRGUM
SPECI PGUM 190315Z 02014G20KT 10SM SCT023 BKN036 BKN044 31/25 A2985
RMK AO2





000
SAGM31 PGUM 190255
MTRGUM
METAR PGUM 190254Z 01011KT 10SM SCT021 BKN027 BKN034 31/25 A2985 RMK
AO2 SLP101 T03060250 58024




000
SAGM31 PGUM 190255
MTRGUM
METAR PGUM 190254Z 01011KT 10SM SCT021 BKN027 BKN034 31/25 A2985 RMK
AO2 SLP101 T03060250 58024





000
SAGM31 PGUM 190155
MTRGUM
METAR PGUM 190154Z 01012G16KT 10SM FEW018 29/26 A2989 RMK AO2 SLP114
T02940256




000
SAGM31 PGUM 190055
MTRGUM
METAR PGUM 190054Z 01010KT 10SM FEW120 29/26 A2991 RMK AO2 SLP121
T02890256





000
SAGM31 PGUM 190055
MTRGUM
METAR PGUM 190054Z 01010KT 10SM FEW120 29/26 A2991 RMK AO2 SLP121
T02890256




000
SAGM31 PGUM 190000
MTRGUM
METAR PGUM 182354Z COR 36009KT 10SM CLR 28/26 A2992 RMK AO2 RAE01
SLP125 P0000 60098 T02830256 10283 20233




000
SAGM31 PGUM 190000
MTRGUM
METAR PGUM 182354Z COR 36009KT 10SM CLR 28/26 A2992 RMK AO2 RAE01
SLP125 P0000 60098 T02830256 10283 20233





000
SAGM31 PGUM 182355
MTRGUM
METAR PGUM 182354Z 36009KT 10SM CLR 28/26 A2992 RMK AO2 RAE01 SLP125
P0000 60078 T02830256 10283 20233





000
SAGM31 PGUM 182355
MTRGUM
METAR PGUM 182354Z 36009KT 10SM CLR 28/26 A2992 RMK AO2 RAE01 SLP125
P0000 60078 T02830256 10283 20233




000
SAGM31 PGUM 182255
MTRGUM
METAR PGUM 182254Z 35004KT 10SM -RA BKN042 OVC055 26/25 A2993 RMK
AO2 RAB2158 SLP126 P0002 T02610250




000
SAGM31 PGUM 182255
MTRGUM
METAR PGUM 182254Z 35004KT 10SM -RA BKN042 OVC055 26/25 A2993 RMK
AO2 RAB2158 SLP126 P0002 T02610250





000
SAGM31 PGUM 182155
MTRGUM
METAR PGUM 182154Z 04006KT 4SM RA FEW019 BKN060 25/24 A2992 RMK AO2
RAB2055 SLP123 P0006 T02500239 $




000
SAGM31 PGUM 182155
MTRGUM
METAR PGUM 182154Z 04006KT 4SM RA FEW019 BKN060 25/24 A2992 RMK AO2
RAB2055 SLP123 P0006 T02500239 $





000
SAGM31 PGUM 182055
MTRGUM
METAR PGUM 182054Z 02009KT 3SM FEW019 BKN060 24/23 A2991 RMK AO2
TSB1955E38RAE38 SLP123 OCNL LTGICCC OHD MOV SW P0028 60070 T02390228
51016




000
SAGM31 PGUM 182055
MTRGUM
METAR PGUM 182054Z 02009KT 3SM FEW019 BKN060 24/23 A2991 RMK AO2
TSB1955E38RAE38 SLP123 OCNL LTGICCC OHD MOV SW P0028 60070 T02390228
51016





000
SAGM31 PGUM 182045
MTRGUM
SPECI PGUM 182044Z 01009KT 3SM FEW019 BKN060 24/23 A2991 RMK AO2
TSB1955E38RAE38 OCNL LTGICCC OHD MOV SW P0027




000
SAGM31 PGUM 182045
MTRGUM
SPECI PGUM 182044Z 01009KT 3SM FEW019 BKN060 24/23 A2991 RMK AO2
TSB1955E38RAE38 OCNL LTGICCC OHD MOV SW P0027





    US Dept of Commerce
    National Oceanic and Atmospheric Administration
    National Weather Service
    1325 East West Highway
    Silver Spring, MD 20910
    Page Author: NWS Internet Services Team
Disclaimer
Information Quality
Credits
Glossary
Privacy Policy
Freedom of Information Act (FOIA)
About Us
Career Opportunities